createdAt,value
2017-05-21T00:00:36.694Z,12.43
2017-05-21T00:01:36.721Z,12.45
2017-05-21T00:02:36.761Z,12.44
2017-05-21T00:03:36.803Z,12.36
2017-05-21T00:04:36.845Z,12.28
2017-05-21T00:05:36.869Z,12.31
2017-05-21T00:06:36.885Z,12.36
2017-05-21T00:07:36.942Z,12.26
2017-05-21T00:08:36.976Z,12.28
2017-05-21T00:09:37.010Z,12.31
2017-05-21T00:10:37.021Z,12.23
2017-05-21T00:11:37.071Z,12.2
2017-05-21T00:12:37.106Z,12.26
2017-05-21T00:13:37.123Z,12.28
2017-05-21T00:14:37.173Z,12.25
2017-05-21T00:15:37.189Z,12.22
2017-05-21T00:16:37.245Z,12.23
2017-05-21T00:17:37.275Z,12.07
2017-05-21T00:18:37.291Z,12.11
2017-05-21T00:19:37.344Z,12.08
2017-05-21T00:20:37.359Z,12.11
2017-05-21T00:21:37.402Z,12.03
2017-05-21T00:22:37.421Z,12
2017-05-21T00:23:37.452Z,11.95
2017-05-21T00:24:37.505Z,11.97
2017-05-21T00:25:37.544Z,12.01
2017-05-21T00:26:37.580Z,11.95
2017-05-21T00:27:37.596Z,12
2017-05-21T00:28:37.642Z,12
2017-05-21T00:29:37.673Z,11.97
2017-05-21T00:30:37.711Z,12
2017-05-21T00:31:37.732Z,11.97
2017-05-21T00:32:37.780Z,11.86
2017-05-21T00:33:37.819Z,11.85
2017-05-21T00:34:37.822Z,11.85
2017-05-21T00:35:37.865Z,11.81
2017-05-21T00:36:37.897Z,11.84
2017-05-21T00:37:37.938Z,11.89
2017-05-21T00:38:37.963Z,11.86
2017-05-21T00:39:37.994Z,11.84
2017-05-21T00:40:37.988Z,11.82
2017-05-21T00:41:40.262Z,11.86
2017-05-21T00:42:38.109Z,11.89
2017-05-21T00:43:38.137Z,11.89
2017-05-21T00:44:38.158Z,11.81
2017-05-21T00:45:38.210Z,11.82
2017-05-21T00:46:38.223Z,11.91
2017-05-21T00:47:38.275Z,11.82
2017-05-21T00:48:38.313Z,11.82
2017-05-21T00:49:38.318Z,11.78
2017-05-21T00:50:38.378Z,11.84
2017-05-21T00:51:38.397Z,11.88
2017-05-21T00:52:38.415Z,11.84
2017-05-21T00:53:38.472Z,11.86
2017-05-21T00:54:38.506Z,11.76
2017-05-21T00:55:38.526Z,11.68
2017-05-21T00:56:38.573Z,11.7
2017-05-21T00:57:38.588Z,11.73
2017-05-21T00:58:38.664Z,11.75
2017-05-21T00:59:38.672Z,11.76
2017-05-21T01:00:38.717Z,11.73
2017-05-21T01:01:38.715Z,11.64
2017-05-21T01:02:38.766Z,11.64
2017-05-21T01:03:38.807Z,11.64
2017-05-21T01:04:38.834Z,11.66
2017-05-21T01:05:38.865Z,11.73
2017-05-21T01:06:38.897Z,11.66
2017-05-21T01:07:38.933Z,11.61
2017-05-21T01:08:38.967Z,11.59
2017-05-21T01:09:38.989Z,11.61
2017-05-21T01:10:39.001Z,11.63
2017-05-21T01:11:39.064Z,11.66
2017-05-21T01:12:39.094Z,11.59
2017-05-21T01:13:39.141Z,11.57
2017-05-21T01:14:39.164Z,11.48
2017-05-21T01:15:39.201Z,11.56
2017-05-21T01:16:39.219Z,11.45
2017-05-21T01:17:39.274Z,11.48
2017-05-21T01:18:39.297Z,11.46
2017-05-21T01:19:39.329Z,11.45
2017-05-21T01:20:39.369Z,11.43
2017-05-21T01:21:39.400Z,11.49
2017-05-21T01:22:39.425Z,11.49
2017-05-21T01:23:39.437Z,11.31
2017-05-21T01:24:39.490Z,11.33
2017-05-21T01:25:39.527Z,11.35
2017-05-21T01:26:39.535Z,11.31
2017-05-21T01:27:39.597Z,11.24
2017-05-21T01:28:39.619Z,11.31
2017-05-21T01:29:39.653Z,11.33
2017-05-21T01:30:39.690Z,11.33
2017-05-21T01:31:39.727Z,11.39
2017-05-21T01:32:39.754Z,11.31
2017-05-21T01:33:39.793Z,11.35
2017-05-21T01:34:39.816Z,11.28
2017-05-21T01:35:39.848Z,11.24
2017-05-21T01:36:39.871Z,11.3
2017-05-21T01:37:39.940Z,11.26
2017-05-21T01:38:39.952Z,11.23
2017-05-21T01:39:39.978Z,11.21
2017-05-21T01:40:40.018Z,11.1
2017-05-21T01:41:40.028Z,11.13
2017-05-21T01:42:40.091Z,11.15
2017-05-21T01:43:40.111Z,11.06
2017-05-21T01:44:40.145Z,11.09
2017-05-21T01:45:40.158Z,11.03
2017-05-21T01:46:40.220Z,11.13
2017-05-21T01:47:40.227Z,11.16
2017-05-21T01:48:40.259Z,11.06
2017-05-21T01:49:40.301Z,11.08
2017-05-21T01:50:40.346Z,11.02
2017-05-21T01:51:40.361Z,11.09
2017-05-21T01:52:40.413Z,11.12
2017-05-21T01:53:40.441Z,11.06
2017-05-21T01:54:40.481Z,11.03
2017-05-21T01:55:40.505Z,11
2017-05-21T01:56:40.537Z,11.13
2017-05-21T01:57:40.583Z,11.06
2017-05-21T01:58:40.612Z,11.02
2017-05-21T01:59:40.635Z,11.08
2017-05-21T02:00:40.672Z,11.03
2017-05-21T02:01:40.712Z,11
2017-05-21T02:02:40.746Z,11.08
2017-05-21T02:03:40.760Z,10.95
2017-05-21T02:04:40.803Z,10.94
2017-05-21T02:05:40.839Z,11
2017-05-21T02:06:40.864Z,11.05
2017-05-21T02:07:40.899Z,10.91
2017-05-21T02:08:40.938Z,10.84
2017-05-21T02:09:40.941Z,11
2017-05-21T02:10:40.991Z,10.85
2017-05-21T02:11:41.039Z,10.97
2017-05-21T02:12:41.026Z,10.91
2017-05-21T02:13:41.102Z,10.91
2017-05-21T02:14:41.131Z,10.85
2017-05-21T02:15:41.151Z,10.79
2017-05-21T02:16:41.192Z,10.88
2017-05-21T02:17:41.228Z,10.83
2017-05-21T02:18:41.247Z,10.92
2017-05-21T02:19:41.291Z,10.84
2017-05-21T02:20:41.317Z,10.87
2017-05-21T02:21:41.336Z,10.85
2017-05-21T02:22:41.393Z,10.79
2017-05-21T02:23:41.413Z,10.75
2017-05-21T02:24:41.440Z,10.79
2017-05-21T02:25:41.480Z,10.8
2017-05-21T02:26:41.490Z,10.84
2017-05-21T02:27:41.527Z,10.77
2017-05-21T02:28:41.562Z,10.75
2017-05-21T02:29:41.616Z,10.8
2017-05-21T02:30:41.641Z,10.8
2017-05-21T02:31:41.684Z,10.67
2017-05-21T02:32:41.703Z,10.66
2017-05-21T02:33:41.729Z,10.69
2017-05-21T02:34:41.764Z,10.66
2017-05-21T02:35:41.806Z,10.73
2017-05-21T02:36:41.839Z,10.66
2017-05-21T02:37:41.849Z,10.66
2017-05-21T02:38:41.864Z,10.73
2017-05-21T02:39:41.919Z,10.58
2017-05-21T02:40:41.969Z,10.58
2017-05-21T02:41:42.005Z,10.59
2017-05-21T02:42:42.049Z,10.59
2017-05-21T02:43:42.042Z,10.55
2017-05-21T02:44:42.096Z,10.58
2017-05-21T02:45:42.230Z,10.52
2017-05-21T02:46:42.152Z,10.55
2017-05-21T02:47:42.191Z,10.57
2017-05-21T02:48:42.217Z,10.61
2017-05-21T02:49:42.232Z,10.59
2017-05-21T02:50:42.385Z,10.61
2017-05-21T02:51:42.320Z,10.49
2017-05-21T02:52:42.331Z,10.51
2017-05-21T02:53:42.387Z,10.51
2017-05-21T02:54:42.397Z,10.55
2017-05-21T02:55:42.430Z,10.47
2017-05-21T02:56:42.454Z,10.39
2017-05-21T02:57:42.520Z,10.39
2017-05-21T02:58:42.557Z,10.58
2017-05-21T02:59:42.573Z,10.44
2017-05-21T03:00:42.612Z,10.55
2017-05-21T03:01:42.626Z,10.52
2017-05-21T03:02:42.668Z,10.42
2017-05-21T03:03:42.739Z,10.35
2017-05-21T03:04:42.747Z,10.46
2017-05-21T03:05:42.748Z,10.51
2017-05-21T03:06:42.790Z,10.47
2017-05-21T03:07:42.836Z,10.57
2017-05-21T03:08:42.869Z,10.54
2017-05-21T03:09:42.902Z,10.58
2017-05-21T03:10:42.934Z,10.49
2017-05-21T03:11:42.965Z,10.58
2017-05-21T03:12:43.003Z,10.59
2017-05-21T03:13:43.044Z,10.55
2017-05-21T03:14:43.057Z,10.54
2017-05-21T03:15:43.072Z,10.57
2017-05-21T03:16:43.100Z,10.61
2017-05-21T03:17:43.150Z,10.51
2017-05-21T03:18:43.193Z,10.57
2017-05-21T03:19:43.218Z,10.52
2017-05-21T03:20:43.233Z,10.57
2017-05-21T03:21:43.288Z,10.63
2017-05-21T03:22:43.308Z,10.54
2017-05-21T03:23:43.344Z,10.63
2017-05-21T03:24:43.358Z,10.7
2017-05-21T03:25:43.411Z,10.7
2017-05-21T03:26:43.431Z,10.73
2017-05-21T03:27:43.538Z,10.75
2017-05-21T03:28:43.526Z,10.7
2017-05-21T03:29:43.552Z,10.66
2017-05-21T03:30:43.586Z,10.66
2017-05-21T03:31:43.611Z,10.77
2017-05-21T03:32:43.654Z,10.8
2017-05-21T03:33:43.671Z,10.79
2017-05-21T03:34:43.697Z,10.73
2017-05-21T03:35:43.734Z,10.87
2017-05-21T03:36:43.867Z,10.88
2017-05-21T03:37:43.815Z,10.87
2017-05-21T03:38:43.829Z,10.91
2017-05-21T03:39:43.863Z,10.91
2017-05-21T03:40:43.902Z,10.92
2017-05-21T03:41:44.082Z,10.97
2017-05-21T03:42:43.950Z,10.95
2017-05-21T03:43:43.987Z,10.9
2017-05-21T03:44:44.027Z,10.95
2017-05-21T03:45:44.043Z,10.92
2017-05-21T03:46:44.073Z,11.06
2017-05-21T03:47:44.139Z,10.98
2017-05-21T03:48:44.146Z,11.1
2017-05-21T03:49:44.186Z,11.05
2017-05-21T03:50:44.224Z,11.1
2017-05-21T03:51:44.232Z,11
2017-05-21T03:52:44.263Z,11.06
2017-05-21T03:53:44.330Z,11.1
2017-05-21T03:54:44.335Z,11.1
2017-05-21T03:55:44.385Z,11.05
2017-05-21T03:56:44.414Z,11.03
2017-05-21T03:57:44.448Z,11.08
2017-05-21T03:58:44.498Z,11.12
2017-05-21T03:59:44.496Z,11.16
2017-05-21T04:00:44.552Z,11.18
2017-05-21T04:01:44.586Z,11.16
2017-05-21T04:02:44.606Z,11.18
2017-05-21T04:03:44.668Z,11.13
2017-05-21T04:04:44.663Z,11.21
2017-05-21T04:05:44.717Z,11.3
2017-05-21T04:06:44.742Z,11.23
2017-05-21T04:07:44.754Z,11.3
2017-05-21T04:08:44.816Z,11.33
2017-05-21T04:09:44.853Z,11.33
2017-05-21T04:10:44.868Z,11.49
2017-05-21T04:11:44.914Z,11.45
2017-05-21T04:12:44.948Z,11.45
2017-05-21T04:13:44.966Z,11.59
2017-05-21T04:14:44.996Z,11.64
2017-05-21T04:15:45.041Z,11.71
2017-05-21T04:16:45.063Z,11.82
2017-05-21T04:17:45.237Z,11.76
2017-05-21T04:18:45.167Z,11.86
2017-05-21T04:19:45.235Z,11.85
2017-05-21T04:20:45.197Z,11.91
2017-05-21T04:21:45.249Z,12
2017-05-21T04:22:45.552Z,12.08
2017-05-21T04:23:45.301Z,12.16
2017-05-21T04:24:45.330Z,12.11
2017-05-21T04:25:45.350Z,12.18
2017-05-21T04:26:45.397Z,12.31
2017-05-21T04:27:45.731Z,12.28
2017-05-21T04:28:45.548Z,12.34
2017-05-21T04:29:45.485Z,12.52
2017-05-21T04:30:45.545Z,12.44
2017-05-21T04:31:45.541Z,12.47
2017-05-21T04:32:45.679Z,12.48
2017-05-21T04:33:45.621Z,12.53
2017-05-21T04:34:45.663Z,12.56
2017-05-21T04:35:45.690Z,12.61
2017-05-21T04:36:45.778Z,12.61
2017-05-21T04:37:45.797Z,12.66
2017-05-21T04:38:45.805Z,12.66
2017-05-21T04:39:45.854Z,12.83
2017-05-21T04:40:45.873Z,12.86
2017-05-21T04:41:45.903Z,12.92
2017-05-21T04:42:46.017Z,13.09
2017-05-21T04:43:45.966Z,13.06
2017-05-21T04:44:46.018Z,13.14
2017-05-21T04:45:46.033Z,13.16
2017-05-21T04:46:46.041Z,13.28
2017-05-21T04:47:46.132Z,13.27
2017-05-21T04:48:46.113Z,13.28
2017-05-21T04:49:46.141Z,13.37
2017-05-21T04:50:46.196Z,13.45
2017-05-21T04:51:46.230Z,13.44
2017-05-21T04:52:46.269Z,13.6
2017-05-21T04:53:46.384Z,13.53
2017-05-21T04:54:46.347Z,13.58
2017-05-21T04:55:46.366Z,13.68
2017-05-21T04:56:46.530Z,13.62
2017-05-21T04:57:46.434Z,13.57
2017-05-21T04:58:46.447Z,13.7
2017-05-21T04:59:46.489Z,13.73
2017-05-21T05:00:46.626Z,13.87
2017-05-21T05:01:46.543Z,13.88
2017-05-21T05:02:46.603Z,13.97
2017-05-21T05:03:46.643Z,14.03
2017-05-21T05:04:46.660Z,14.03
2017-05-21T05:05:46.705Z,14.11
2017-05-21T05:06:46.741Z,14.12
2017-05-21T05:07:46.760Z,14.21
2017-05-21T05:08:46.933Z,14.28
2017-05-21T05:09:46.976Z,14.34
2017-05-21T05:10:46.893Z,14.41
2017-05-21T05:11:46.901Z,14.51
2017-05-21T05:12:46.955Z,14.48
2017-05-21T05:13:47.074Z,14.51
2017-05-21T05:14:47.006Z,14.67
2017-05-21T05:15:47.044Z,14.8
2017-05-21T05:16:47.076Z,15.23
2017-05-21T05:17:47.132Z,15.62
2017-05-21T05:18:47.238Z,15.95
2017-05-21T05:19:47.199Z,16.13
2017-05-21T05:20:47.235Z,16.26
2017-05-21T05:21:47.242Z,16.4
2017-05-21T05:22:47.286Z,16.63
2017-05-21T05:23:47.311Z,16.73
2017-05-21T05:24:47.369Z,16.8
2017-05-21T05:25:47.400Z,16.8
2017-05-21T05:26:47.425Z,16.76
2017-05-21T05:27:47.434Z,16.94
2017-05-21T05:28:47.500Z,17.28
2017-05-21T05:29:47.752Z,17.6
2017-05-21T05:30:47.551Z,18.02
2017-05-21T05:31:47.607Z,18.11
2017-05-21T05:32:47.660Z,18.26
2017-05-21T05:33:47.699Z,18.08
2017-05-21T05:34:47.707Z,17.94
2017-05-21T05:35:47.755Z,17.94
2017-05-21T05:36:47.781Z,18.19
2017-05-21T05:37:47.828Z,18.65
2017-05-21T05:38:47.865Z,18.99
2017-05-21T05:39:47.881Z,19.19
2017-05-21T05:40:47.914Z,19.28
2017-05-21T05:41:47.964Z,19.2
2017-05-21T05:42:48.006Z,19.02
2017-05-21T05:43:48.048Z,18.89
2017-05-21T05:44:48.081Z,18.9
2017-05-21T05:45:48.113Z,18.75
2017-05-21T05:46:48.152Z,18.49
2017-05-21T05:47:48.207Z,18.34
2017-05-21T05:48:48.229Z,18.36
2017-05-21T05:49:48.278Z,18.44
2017-05-21T05:50:48.300Z,18.65
2017-05-21T05:51:48.344Z,18.5
2017-05-21T05:52:48.356Z,18.49
2017-05-21T05:53:48.403Z,18.49
2017-05-21T05:54:48.425Z,18.49
2017-05-21T05:55:48.468Z,18.63
2017-05-21T05:56:48.541Z,18.56
2017-05-21T05:57:48.568Z,18.66
2017-05-21T05:58:48.598Z,18.68
2017-05-21T05:59:48.942Z,18.69
2017-05-21T06:00:48.647Z,18.56
2017-05-21T06:01:48.701Z,18.68
2017-05-21T06:02:48.752Z,18.54
2017-05-21T06:03:48.785Z,18.75
2017-05-21T06:04:49.077Z,19.02
2017-05-21T06:05:48.869Z,19.2
2017-05-21T06:06:48.906Z,19.42
2017-05-21T06:07:48.937Z,19.64
2017-05-21T06:08:48.973Z,19.74
2017-05-21T06:09:49.112Z,20.19
2017-05-21T06:10:49.038Z,20.63
2017-05-21T06:11:49.071Z,21.08
2017-05-21T06:12:49.108Z,21.4
2017-05-21T06:13:49.165Z,22.34
2017-05-21T06:14:49.206Z,23.42
2017-05-21T06:15:49.226Z,24.46
2017-05-21T06:16:49.250Z,25.45
2017-05-21T06:17:49.307Z,26.41
2017-05-21T06:18:49.349Z,27.24
2017-05-21T06:19:49.360Z,27.96
2017-05-21T06:20:49.434Z,28.48
2017-05-21T06:21:49.451Z,28.82
2017-05-21T06:22:49.478Z,29.28
2017-05-21T06:23:49.547Z,29.63
2017-05-21T06:24:49.579Z,30.1
2017-05-21T06:25:49.623Z,30.34
2017-05-21T06:26:49.672Z,30.66
2017-05-21T06:27:49.709Z,30.91
2017-05-21T06:28:49.751Z,31.19
2017-05-21T06:29:49.807Z,31.45
2017-05-21T06:30:49.826Z,31.77
2017-05-21T06:31:49.866Z,32.24
2017-05-21T06:32:51.112Z,32.5
2017-05-21T06:33:49.968Z,32.53
2017-05-21T06:34:49.957Z,32.54
2017-05-21T06:35:50.040Z,32.64
2017-05-21T06:36:50.031Z,32.62
2017-05-21T06:37:50.130Z,32.83
2017-05-21T06:38:50.171Z,32.91
2017-05-21T06:39:50.206Z,33.06
2017-05-21T06:40:50.225Z,33.32
2017-05-21T06:41:50.305Z,33.77
2017-05-21T06:42:50.337Z,33.87
2017-05-21T06:43:50.407Z,33.89
2017-05-21T06:44:50.406Z,33.83
2017-05-21T06:45:50.468Z,33.84
2017-05-21T06:46:50.499Z,33.95
2017-05-21T06:47:50.539Z,34.12
2017-05-21T06:48:50.610Z,34.32
2017-05-21T06:49:50.641Z,34.46
2017-05-21T06:50:50.705Z,34.64
2017-05-21T06:51:50.688Z,34.84
2017-05-21T06:52:51.921Z,34.97
2017-05-21T06:53:52.011Z,35.21
2017-05-21T06:54:51.267Z,35.46
2017-05-21T06:55:51.161Z,35.76
2017-05-21T06:56:50.956Z,35.94
2017-05-21T06:57:50.981Z,36.08
2017-05-21T06:58:51.026Z,36.41
2017-05-21T06:59:51.065Z,36.49
2017-05-21T07:00:51.133Z,36.67
2017-05-21T07:01:51.173Z,36.68
2017-05-21T07:02:51.221Z,36.84
2017-05-21T07:03:51.304Z,36.78
2017-05-21T07:04:51.325Z,36.63
2017-05-21T07:05:51.438Z,36.84
2017-05-21T07:06:51.405Z,37.14
2017-05-21T07:07:51.450Z,37.3
2017-05-21T07:08:51.713Z,37.24
2017-05-21T07:09:51.534Z,37.19
2017-05-21T07:10:52.682Z,37.49
2017-05-21T07:11:51.618Z,37.71
2017-05-21T07:12:51.690Z,37.86
2017-05-21T07:13:51.714Z,38.09
2017-05-21T07:14:51.774Z,38.21
2017-05-21T07:15:51.814Z,38.33
2017-05-21T07:16:51.850Z,38.06
2017-05-21T07:17:51.897Z,38.17
2017-05-21T07:18:51.948Z,38.43
2017-05-21T07:19:51.984Z,38.58
2017-05-21T07:20:52.064Z,38.66
2017-05-21T07:21:52.062Z,38.62
2017-05-21T07:22:52.137Z,38.65
2017-05-21T07:23:52.182Z,38.9
2017-05-21T07:24:52.261Z,39.15
2017-05-21T07:25:52.283Z,39.34
2017-05-21T07:26:52.294Z,39.41
2017-05-21T07:27:52.377Z,39.49
2017-05-21T07:28:52.417Z,39.3
2017-05-21T07:29:53.604Z,39.06
2017-05-21T07:30:52.498Z,39.09
2017-05-21T07:31:52.541Z,39.34
2017-05-21T07:32:52.588Z,39.4
2017-05-21T07:33:52.630Z,39.31
2017-05-21T07:34:52.673Z,39.47
2017-05-21T07:35:52.724Z,39.64
2017-05-21T07:36:52.766Z,39.72
2017-05-21T07:37:52.826Z,39.71
2017-05-21T07:38:52.886Z,39.69
2017-05-21T07:39:52.914Z,39.69
2017-05-21T07:40:52.961Z,39.76
2017-05-21T07:41:53.015Z,39.97
2017-05-21T07:42:53.064Z,40.18
2017-05-21T07:43:53.098Z,40.41
2017-05-21T07:44:53.125Z,40.38
2017-05-21T07:45:53.196Z,40.34
2017-05-21T07:46:53.247Z,40.27
2017-05-21T07:47:53.275Z,40.31
2017-05-21T07:48:53.345Z,40.18
2017-05-21T07:49:53.386Z,40.13
2017-05-21T07:50:53.428Z,40.24
2017-05-21T07:51:53.491Z,39.88
2017-05-21T07:52:53.528Z,39.5
2017-05-21T07:53:53.573Z,39.41
2017-05-21T07:54:53.632Z,39.45
2017-05-21T07:55:53.680Z,39.6
2017-05-21T07:56:53.694Z,39.67
2017-05-21T07:57:53.754Z,39.6
2017-05-21T07:58:53.812Z,39.38
2017-05-21T07:59:53.842Z,39.62
2017-05-21T08:00:53.889Z,39.9
2017-05-21T08:01:53.976Z,40.31
2017-05-21T08:02:53.993Z,40.51
2017-05-21T08:03:54.106Z,40.86
2017-05-21T08:04:54.078Z,40.96
2017-05-21T08:05:54.145Z,41.35
2017-05-21T08:06:54.250Z,41.63
2017-05-21T08:07:54.234Z,41.88
2017-05-21T08:08:54.261Z,42.15
2017-05-21T08:09:54.341Z,42.28
2017-05-21T08:10:54.496Z,42.32
2017-05-21T08:11:54.426Z,42.17
2017-05-21T08:12:54.479Z,42.18
2017-05-21T08:13:54.524Z,42.36
2017-05-21T08:14:54.579Z,42.23
2017-05-21T08:15:54.633Z,41.89
2017-05-21T08:16:54.683Z,41.68
2017-05-21T08:17:54.669Z,41.72
2017-05-21T08:18:54.768Z,41.5
2017-05-21T08:19:54.793Z,41.66
2017-05-21T08:20:54.872Z,41.91
2017-05-21T08:21:54.902Z,42.25
2017-05-21T08:22:54.976Z,42.36
2017-05-21T08:23:54.997Z,42.54
2017-05-21T08:24:55.063Z,42.69
2017-05-21T08:25:55.089Z,42.4
2017-05-21T08:26:55.156Z,42.33
2017-05-21T08:27:55.207Z,42.64
2017-05-21T08:28:55.255Z,42.51
2017-05-21T08:29:55.266Z,42.45
2017-05-21T08:30:55.353Z,42.51
2017-05-21T08:31:55.403Z,42.41
2017-05-21T08:32:55.455Z,42.51
2017-05-21T08:33:55.480Z,42.61
2017-05-21T08:34:55.553Z,42.63
2017-05-21T08:35:55.618Z,42.63
2017-05-21T08:36:55.638Z,42.74
2017-05-21T08:37:55.713Z,42.92
2017-05-21T08:38:55.762Z,43.17
2017-05-21T08:39:55.800Z,43.27
2017-05-21T08:40:55.854Z,43.27
2017-05-21T08:41:55.909Z,43.23
2017-05-21T08:42:55.945Z,43.17
2017-05-21T08:43:56.009Z,43.25
2017-05-21T08:44:56.048Z,43.46
2017-05-21T08:45:56.110Z,43.28
2017-05-21T08:46:56.162Z,43.37
2017-05-21T08:47:56.173Z,43.43
2017-05-21T08:48:56.257Z,43.51
2017-05-21T08:49:56.311Z,43.61
2017-05-21T08:50:56.360Z,43.57
2017-05-21T08:51:56.483Z,43.54
2017-05-21T08:52:56.458Z,43.71
2017-05-21T08:53:56.509Z,43.78
2017-05-21T08:54:56.552Z,43.66
2017-05-21T08:55:56.591Z,43.69
2017-05-21T08:56:56.662Z,43.32
2017-05-21T08:57:56.749Z,43.16
2017-05-21T08:58:56.758Z,43.11
2017-05-21T08:59:56.847Z,43.25
2017-05-21T09:00:56.879Z,43.54
2017-05-21T09:01:56.921Z,43.55
2017-05-21T09:02:56.962Z,43.66
2017-05-21T09:03:57.008Z,43.73
2017-05-21T09:04:57.065Z,43.57
2017-05-21T09:05:57.105Z,43.17
2017-05-21T09:06:57.165Z,43.07
2017-05-21T09:07:57.214Z,43.19
2017-05-21T09:08:57.286Z,43.33
2017-05-21T09:09:57.350Z,43.51
2017-05-21T09:10:57.377Z,43.55
2017-05-21T09:11:57.403Z,43.64
2017-05-21T09:12:57.480Z,43.76
2017-05-21T09:13:57.709Z,43.74
2017-05-21T09:14:57.593Z,43.74
2017-05-21T09:15:57.625Z,43.88
2017-05-21T09:16:57.726Z,44.05
2017-05-21T09:17:57.747Z,44
2017-05-21T09:18:57.778Z,43.92
2017-05-21T09:19:57.814Z,43.85
2017-05-21T09:20:57.887Z,43.84
2017-05-21T09:21:57.926Z,43.61
2017-05-21T09:22:57.977Z,43.49
2017-05-21T09:23:58.050Z,43.51
2017-05-21T09:24:58.075Z,43.58
2017-05-21T09:25:58.130Z,44.02
2017-05-21T09:26:58.200Z,44.36
2017-05-21T09:27:58.229Z,44.8
2017-05-21T09:28:58.302Z,45.07
2017-05-21T09:29:58.354Z,45.21
2017-05-21T09:30:58.410Z,45.14
2017-05-21T09:31:58.459Z,44.76
2017-05-21T09:32:58.518Z,44.68
2017-05-21T09:33:58.547Z,44.66
2017-05-21T09:34:58.615Z,44.73
2017-05-21T09:35:58.663Z,44.83
2017-05-21T09:36:58.718Z,44.49
2017-05-21T09:37:58.757Z,44.27
2017-05-21T09:38:58.819Z,44.34
2017-05-21T09:39:58.862Z,44.43
2017-05-21T09:40:58.919Z,44.65
2017-05-21T09:41:58.998Z,44.83
2017-05-21T09:42:59.033Z,44.85
2017-05-21T09:43:59.094Z,44.84
2017-05-21T09:44:59.114Z,44.71
2017-05-21T09:45:59.155Z,44.38
2017-05-21T09:46:59.256Z,44.21
2017-05-21T09:47:59.288Z,44.17
2017-05-21T09:48:59.349Z,44.21
2017-05-21T09:49:59.393Z,44.27
2017-05-21T09:50:59.449Z,43.77
2017-05-21T09:51:59.506Z,43.15
2017-05-21T09:52:59.627Z,43.11
2017-05-21T09:53:59.606Z,42.45
2017-05-21T09:54:59.666Z,42.14
2017-05-21T09:55:59.699Z,42.28
2017-05-21T09:56:59.759Z,42.48
2017-05-21T09:57:59.832Z,42.64
2017-05-21T09:58:59.885Z,42.94
2017-05-21T09:59:59.932Z,43.24
2017-05-21T10:00:59.979Z,43.57
2017-05-21T10:02:00.029Z,43.71
2017-05-21T10:03:00.070Z,43.54
2017-05-21T10:04:00.160Z,43.46
2017-05-21T10:05:00.630Z,43.57
2017-05-21T10:06:00.248Z,43.66
2017-05-21T10:07:00.261Z,43.71
2017-05-21T10:08:00.362Z,43.77
2017-05-21T10:09:00.383Z,43.76
2017-05-21T10:10:00.463Z,43.88
2017-05-21T10:11:00.508Z,44.18
2017-05-21T10:12:00.644Z,44.55
2017-05-21T10:13:00.594Z,44.61
2017-05-21T10:14:00.674Z,43.65
2017-05-21T10:15:00.716Z,42.32
2017-05-21T10:16:00.763Z,41.95
2017-05-21T10:17:00.840Z,42.22
2017-05-21T10:18:00.877Z,42.64
2017-05-21T10:19:00.910Z,43.01
2017-05-21T10:20:00.951Z,43.2
2017-05-21T10:21:01.051Z,43.32
2017-05-21T10:22:01.020Z,43.47
2017-05-21T10:23:01.121Z,43.54
2017-05-21T10:24:01.222Z,42.88
2017-05-21T10:25:01.245Z,41.89
2017-05-21T10:26:01.263Z,41.65
2017-05-21T10:27:01.310Z,41.87
2017-05-21T10:28:01.355Z,42.06
2017-05-21T10:29:01.412Z,42.41
2017-05-21T10:30:01.638Z,42.6
2017-05-21T10:31:01.564Z,42.69
2017-05-21T10:32:01.545Z,42.57
2017-05-21T10:33:01.625Z,42.55
2017-05-21T10:34:01.639Z,42.78
2017-05-21T10:35:01.681Z,43.01
2017-05-21T10:36:01.750Z,43.04
2017-05-21T10:37:01.859Z,43.11
2017-05-21T10:38:01.845Z,43.28
2017-05-21T10:39:01.858Z,43.24
2017-05-21T10:40:01.947Z,43.25
2017-05-21T10:41:02.025Z,43.17
2017-05-21T10:42:02.019Z,43.17
2017-05-21T10:43:02.067Z,43.39
2017-05-21T10:44:02.115Z,43.49
2017-05-21T10:45:02.150Z,43.28
2017-05-21T10:46:02.183Z,43.23
2017-05-21T10:47:02.232Z,43.16
2017-05-21T10:48:02.499Z,43.33
2017-05-21T10:49:02.338Z,43.16
2017-05-21T10:50:02.471Z,43.01
2017-05-21T10:51:02.433Z,42.85
2017-05-21T10:52:02.448Z,42.86
2017-05-21T10:53:02.540Z,43.13
2017-05-21T10:54:02.567Z,43.02
2017-05-21T10:55:02.614Z,42.89
2017-05-21T10:56:02.680Z,42.63
2017-05-21T10:57:02.717Z,42.51
2017-05-21T10:58:02.740Z,42.26
2017-05-21T10:59:02.845Z,42.07
2017-05-21T11:00:02.883Z,41.98
2017-05-21T11:01:02.868Z,41.72
2017-05-21T11:02:02.915Z,41.71
2017-05-21T11:03:02.961Z,41.75
2017-05-21T11:04:03.005Z,41.91
2017-05-21T11:05:03.350Z,41.78
2017-05-21T11:06:03.073Z,41.68
2017-05-21T11:07:03.108Z,41.78
2017-05-21T11:08:03.596Z,41.88
2017-05-21T11:09:03.192Z,42.06
2017-05-21T11:10:03.267Z,42.35
2017-05-21T11:11:03.305Z,42.59
2017-05-21T11:12:03.345Z,42.67
2017-05-21T11:13:03.348Z,42.37
2017-05-21T11:14:03.433Z,40.88
2017-05-21T11:15:03.480Z,39.11
2017-05-21T11:16:03.503Z,38.24
2017-05-21T11:17:03.573Z,37.24
2017-05-21T11:18:03.605Z,36.05
2017-05-21T11:19:03.647Z,34.86
2017-05-21T11:20:03.685Z,34.72
2017-05-21T11:21:03.736Z,35.28
2017-05-21T11:22:03.755Z,36.18
2017-05-21T11:23:03.825Z,36.97
2017-05-21T11:24:03.849Z,37.56
2017-05-21T11:25:03.884Z,37.66
2017-05-21T11:26:03.994Z,36.65
2017-05-21T11:27:03.974Z,35.34
2017-05-21T11:28:04.216Z,34.63
2017-05-21T11:29:04.093Z,34.48
2017-05-21T11:30:04.109Z,34.03
2017-05-21T11:31:04.238Z,33.18
2017-05-21T11:32:04.171Z,32.34
2017-05-21T11:33:04.220Z,31.36
2017-05-21T11:34:04.263Z,30.45
2017-05-21T11:35:04.329Z,29.72
2017-05-21T11:36:04.349Z,29.13
2017-05-21T11:37:04.385Z,28.53
2017-05-21T11:38:04.439Z,28.11
2017-05-21T11:39:04.467Z,27.68
2017-05-21T11:40:04.533Z,27.42
2017-05-21T11:41:04.564Z,27.04
2017-05-21T11:42:04.606Z,26.61
2017-05-21T11:43:04.647Z,26.39
2017-05-21T11:44:04.661Z,26.23
2017-05-21T11:45:04.797Z,25.97
2017-05-21T11:46:04.819Z,25.93
2017-05-21T11:47:04.844Z,25.74
2017-05-21T11:48:05.082Z,25.59
2017-05-21T11:49:04.922Z,25.52
2017-05-21T11:50:05.049Z,25.51
2017-05-21T11:51:05.643Z,25.51
2017-05-21T11:52:04.995Z,25.62
2017-05-21T11:53:05.054Z,25.59
2017-05-21T11:54:05.097Z,25.56
2017-05-21T11:55:05.420Z,25.45
2017-05-21T11:56:05.162Z,25.3
2017-05-21T11:57:05.214Z,25.3
2017-05-21T11:58:05.282Z,25.17
2017-05-21T11:59:05.282Z,25.02
2017-05-21T12:00:05.356Z,24.77
2017-05-21T12:01:05.361Z,24.58
2017-05-21T12:02:05.420Z,24.45
2017-05-21T12:03:05.461Z,24.29
2017-05-21T12:04:05.496Z,24.11
2017-05-21T12:05:05.552Z,24.11
2017-05-21T12:06:05.590Z,24.09
2017-05-21T12:07:05.624Z,24.14
2017-05-21T12:08:05.686Z,24.34
2017-05-21T12:09:05.691Z,24.4
2017-05-21T12:10:05.729Z,24.39
2017-05-21T12:11:05.796Z,24.45
2017-05-21T12:12:05.820Z,24.44
2017-05-21T12:13:05.868Z,24.42
2017-05-21T12:14:05.906Z,24.39
2017-05-21T12:15:05.947Z,24.29
2017-05-21T12:16:05.959Z,24.18
2017-05-21T12:17:06.030Z,23.89
2017-05-21T12:18:06.068Z,23.82
2017-05-21T12:19:06.117Z,23.64
2017-05-21T12:20:06.164Z,23.52
2017-05-21T12:21:06.178Z,23.47
2017-05-21T12:22:06.223Z,23.4
2017-05-21T12:23:06.271Z,23.26
2017-05-21T12:24:06.308Z,23.19
2017-05-21T12:25:06.325Z,23.16
2017-05-21T12:26:06.361Z,23.26
2017-05-21T12:27:06.413Z,23.32
2017-05-21T12:28:06.482Z,23.47
2017-05-21T12:29:06.525Z,23.62
2017-05-21T12:30:06.566Z,23.62
2017-05-21T12:31:06.603Z,23.66
2017-05-21T12:32:06.630Z,23.59
2017-05-21T12:33:06.668Z,23.66
2017-05-21T12:34:06.709Z,23.64
2017-05-21T12:35:06.789Z,23.74
2017-05-21T12:36:06.777Z,23.72
2017-05-21T12:37:06.775Z,23.82
2017-05-21T12:38:06.882Z,23.77
2017-05-21T12:39:06.912Z,23.75
2017-05-21T12:40:06.983Z,23.81
2017-05-21T12:41:06.957Z,23.82
2017-05-21T12:42:07.030Z,23.78
2017-05-21T12:43:07.069Z,23.75
2017-05-21T12:44:07.092Z,23.66
2017-05-21T12:45:07.188Z,23.7
2017-05-21T12:46:07.169Z,23.75
2017-05-21T12:47:07.225Z,23.81
2017-05-21T12:48:07.274Z,23.79
2017-05-21T12:49:07.308Z,23.79
2017-05-21T12:50:07.333Z,23.87
2017-05-21T12:51:07.369Z,23.7
2017-05-21T12:52:07.472Z,23.66
2017-05-21T12:53:07.471Z,23.63
2017-05-21T12:54:07.513Z,23.62
2017-05-21T12:55:07.555Z,23.57
2017-05-21T12:56:07.630Z,23.57